createdAt,value
2023-03-29T00:08:21.605Z,4.28
2023-03-29T00:11:02.925Z,4.43
2023-03-29T00:13:46.650Z,4.18
2023-03-29T00:24:26.011Z,4.35
2023-03-29T00:26:56.797Z,4.00
2023-03-29T00:29:32.858Z,4.20
2023-03-29T00:32:16.836Z,3.90
2023-03-29T00:34:48.278Z,3.75
2023-03-29T00:37:32.789Z,4.55
2023-03-29T00:40:15.812Z,4.45
2023-03-29T00:42:54.666Z,3.85
2023-03-29T00:45:30.536Z,4.32
2023-03-29T00:48:04.714Z,4.90
2023-03-29T00:50:52.049Z,3.53
2023-03-29T00:53:30.270Z,3.75
2023-03-29T00:56:19.023Z,3.53
2023-03-29T00:58:58.759Z,3.40
2023-03-29T01:01:49.465Z,3.30
2023-03-29T01:04:24.468Z,2.95
2023-03-29T01:07:11.696Z,3.25
2023-03-29T01:09:44.434Z,3.85
2023-03-29T01:12:25.413Z,3.20
2023-03-29T01:15:26.921Z,3.03
2023-03-29T01:18:14.150Z,3.75
2023-03-29T01:21:07.755Z,3.45
2023-03-29T01:24:08.820Z,3.75
2023-03-29T01:26:46.864Z,3.40
2023-03-29T01:29:22.850Z,3.30
2023-03-29T01:31:56.247Z,2.95
2023-03-29T01:34:28.603Z,3.10
2023-03-29T01:37:02.217Z,3.83
2023-03-29T01:39:30.842Z,3.92
2023-03-29T01:42:11.479Z,3.42
2023-03-29T01:44:58.151Z,2.88
2023-03-29T01:47:36.207Z,3.08
2023-03-29T01:50:14.829Z,2.80
2023-03-29T01:52:52.539Z,3.00
2023-03-29T01:55:33.628Z,3.35
2023-03-29T01:58:17.324Z,3.10
2023-03-29T02:00:54.910Z,3.55
2023-03-29T02:03:43.029Z,3.80
2023-03-29T02:06:14.726Z,3.05
2023-03-29T02:08:47.018Z,4.95
2023-03-29T02:11:20.818Z,6.35
2023-03-29T02:13:52.621Z,7.15
2023-03-29T02:16:29.996Z,7.05
2023-03-29T02:19:00.489Z,6.22
2023-03-29T02:21:37.935Z,5.63
2023-03-29T02:24:36.746Z,4.18
2023-03-29T02:27:16.390Z,4.72
2023-03-29T02:29:48.855Z,5.53
2023-03-29T02:32:46.924Z,5.55
2023-03-29T02:35:31.008Z,7.15
2023-03-29T02:41:01.868Z,6.88
2023-03-29T02:43:33.863Z,5.50
2023-03-29T02:46:26.348Z,4.55
2023-03-29T02:53:44.005Z,4.20
2023-03-29T02:56:34.939Z,3.67
2023-03-29T02:59:09.210Z,3.10
2023-03-29T03:01:38.209Z,3.60
2023-03-29T03:04:07.330Z,3.53
2023-03-29T03:06:36.885Z,3.28
2023-03-29T03:09:07.088Z,2.47
2023-03-29T03:11:35.879Z,3.00
2023-03-29T03:14:09.077Z,3.22
2023-03-29T03:19:29.958Z,2.70
2023-03-29T03:22:01.871Z,2.70
2023-03-29T03:24:33.170Z,3.22
2023-03-29T03:27:01.966Z,3.30
2023-03-29T03:32:23.832Z,3.10
2023-03-29T03:35:26.226Z,2.58
2023-03-29T03:37:58.011Z,3.00
2023-03-29T03:40:39.233Z,2.53
2023-03-29T03:43:11.031Z,3.33
2023-03-29T03:45:54.951Z,3.15
2023-03-29T03:48:59.194Z,3.60
2023-03-29T03:51:37.027Z,3.03
2023-03-29T03:56:56.110Z,3.58
2023-03-29T03:59:39.200Z,3.60
2023-03-29T04:02:19.394Z,3.50
2023-03-29T04:04:52.444Z,3.85
2023-03-29T04:11:28.339Z,3.65
2023-03-29T04:14:02.857Z,3.58
2023-03-29T04:16:36.911Z,3.30
2023-03-29T04:19:28.613Z,5.00
2023-03-29T04:22:11.466Z,10.35
2023-03-29T04:32:04.945Z,4.55
2023-03-29T04:35:21.321Z,4.22
2023-03-29T04:40:25.592Z,3.30
2023-03-29T04:43:06.681Z,3.40
2023-03-29T04:46:09.104Z,3.80
2023-03-29T04:49:12.579Z,3.55
2023-03-29T04:51:43.685Z,3.47
2023-03-29T04:54:15.845Z,3.50
2023-03-29T04:57:08.559Z,5.47
2023-03-29T04:59:39.121Z,3.55
2023-03-29T05:05:05.291Z,3.38
2023-03-29T05:25:03.277Z,10.30
2023-03-29T05:27:32.135Z,4.30
2023-03-29T05:30:02.260Z,3.35
2023-03-29T05:47:09.017Z,4.90
2023-03-29T05:55:00.956Z,3.60
2023-03-29T05:57:40.810Z,3.30
2023-03-29T06:00:24.346Z,3.90
2023-03-29T06:02:59.262Z,5.75
2023-03-29T06:05:58.113Z,4.40
2023-03-29T06:08:27.846Z,4.55
2023-03-29T06:11:05.072Z,5.03
2023-03-29T06:13:35.161Z,4.75
2023-03-29T06:16:04.345Z,4.47
2023-03-29T06:18:41.464Z,4.35
2023-03-29T06:21:19.314Z,3.20
2023-03-29T06:24:02.705Z,6.45
2023-03-29T06:26:31.485Z,9.68
2023-03-29T06:29:00.702Z,10.05
2023-03-29T06:31:40.004Z,5.50
2023-03-29T06:34:33.260Z,4.90
2023-03-29T06:37:09.074Z,4.97
2023-03-29T06:39:55.786Z,4.55
2023-03-29T06:42:30.624Z,4.45
2023-03-29T06:44:59.388Z,3.20
2023-03-29T06:47:32.218Z,3.97
2023-03-29T06:50:11.993Z,3.50
2023-03-29T06:52:54.908Z,3.00
2023-03-29T06:55:28.843Z,5.30
2023-03-29T06:57:58.234Z,12.32
2023-03-29T07:00:30.781Z,10.88
2023-03-29T07:03:02.268Z,4.60
2023-03-29T07:05:32.356Z,8.13
2023-03-29T07:08:11.294Z,4.57
2023-03-29T07:10:41.773Z,4.03
2023-03-29T07:13:12.259Z,3.35
2023-03-29T07:15:41.557Z,2.90
2023-03-29T07:18:10.461Z,2.50
2023-03-29T07:20:47.462Z,3.45
2023-03-29T07:23:16.054Z,3.25
2023-03-29T07:25:44.781Z,3.30
2023-03-29T07:28:13.136Z,2.83
2023-03-29T07:30:41.718Z,3.70
2023-03-29T07:33:10.165Z,2.75
2023-03-29T07:35:40.033Z,2.78
2023-03-29T07:38:09.146Z,4.40
2023-03-29T07:40:37.578Z,3.50
2023-03-29T07:43:09.075Z,7.43
2023-03-29T07:45:37.924Z,5.30
2023-03-29T07:48:07.173Z,4.35
2023-03-29T07:50:35.741Z,4.15
2023-03-29T07:53:05.519Z,3.45
2023-03-29T07:55:33.884Z,4.45
2023-03-29T07:58:03.171Z,3.95
2023-03-29T08:00:33.199Z,4.60
2023-03-29T08:03:03.773Z,5.05
2023-03-29T08:05:40.661Z,3.17
2023-03-29T08:08:11.752Z,3.55
2023-03-29T08:10:40.499Z,3.72
2023-03-29T08:13:10.505Z,3.22
2023-03-29T08:15:42.100Z,3.97
2023-03-29T08:18:10.417Z,3.20
2023-03-29T08:20:38.736Z,3.70
2023-03-29T08:23:07.109Z,3.63
2023-03-29T08:25:37.381Z,3.97
2023-03-29T08:28:06.147Z,3.95
2023-03-29T08:30:34.698Z,3.80
2023-03-29T08:33:06.638Z,3.88
2023-03-29T08:35:35.224Z,3.85
2023-03-29T08:38:03.625Z,4.15
2023-03-29T08:40:37.883Z,3.72
2023-03-29T08:43:22.372Z,2.97
2023-03-29T08:46:01.168Z,3.83
2023-03-29T08:48:32.749Z,4.07
2023-03-29T08:51:03.865Z,3.90
2023-03-29T08:53:37.235Z,7.35
2023-03-29T08:56:10.138Z,4.25
2023-03-29T08:58:40.597Z,4.82
2023-03-29T09:01:11.656Z,4.30
2023-03-29T09:03:45.203Z,4.20
2023-03-29T09:06:14.558Z,3.53
2023-03-29T09:08:45.444Z,4.82
2023-03-29T09:11:31.370Z,8.30
2023-03-29T09:14:13.974Z,4.63
2023-03-29T09:16:52.091Z,4.47
2023-03-29T09:19:30.967Z,4.50
2023-03-29T09:22:08.519Z,4.18
2023-03-29T09:24:50.472Z,5.25
2023-03-29T09:27:24.651Z,4.40
2023-03-29T09:30:04.912Z,4.65
2023-03-29T09:32:38.830Z,5.38
2023-03-29T09:35:18.460Z,4.18
2023-03-29T09:37:49.168Z,4.05
2023-03-29T09:40:20.584Z,4.72
2023-03-29T09:42:52.648Z,3.80
2023-03-29T09:45:23.029Z,4.68
2023-03-29T09:47:56.465Z,5.50
2023-03-29T09:50:32.006Z,4.90
2023-03-29T09:53:01.096Z,3.63
2023-03-29T09:55:32.399Z,3.90
2023-03-29T09:58:03.529Z,5.50
2023-03-29T10:00:33.317Z,5.20
2023-03-29T10:03:02.329Z,4.50
2023-03-29T10:05:33.084Z,4.70
2023-03-29T10:08:02.529Z,4.47
2023-03-29T10:10:33.069Z,4.80
2023-03-29T10:13:05.478Z,3.63
2023-03-29T10:15:35.362Z,4.10
2023-03-29T10:18:10.996Z,4.53
2023-03-29T10:20:41.263Z,4.20
2023-03-29T10:23:18.632Z,3.85
2023-03-29T10:25:47.278Z,4.53
2023-03-29T10:28:21.398Z,4.40
2023-03-29T10:30:56.447Z,4.35
2023-03-29T10:33:29.334Z,4.93
2023-03-29T10:35:58.881Z,4.60
2023-03-29T10:38:30.298Z,5.05
2023-03-29T10:41:08.113Z,4.20
2023-03-29T10:43:38.581Z,4.10
2023-03-29T10:46:11.439Z,4.53
2023-03-29T10:48:40.396Z,4.40
2023-03-29T10:51:08.699Z,4.68
2023-03-29T10:53:38.709Z,4.75
2023-03-29T10:56:28.012Z,5.40
2023-03-29T10:59:19.744Z,6.90
2023-03-29T11:02:05.342Z,6.10
2023-03-29T11:04:43.789Z,5.90
2023-03-29T11:07:26.412Z,11.07
2023-03-29T11:10:02.573Z,6.20
2023-03-29T11:12:41.474Z,7.28
2023-03-29T11:15:22.325Z,5.38
2023-03-29T11:17:59.947Z,5.18
2023-03-29T11:20:39.886Z,5.65
2023-03-29T11:23:24.530Z,5.18
2023-03-29T11:26:04.097Z,5.93
2023-03-29T11:28:37.924Z,4.45
2023-03-29T11:31:14.573Z,5.40
2023-03-29T11:33:55.412Z,4.93
2023-03-29T11:36:29.652Z,5.60
2023-03-29T11:39:06.280Z,6.00
2023-03-29T11:41:39.671Z,5.50
2023-03-29T11:44:14.724Z,5.80
2023-03-29T11:46:49.953Z,5.88
2023-03-29T11:49:24.580Z,6.05
2023-03-29T11:51:58.054Z,6.35
2023-03-29T11:54:30.011Z,6.30
2023-03-29T11:57:03.975Z,6.53
2023-03-29T11:59:37.208Z,7.07
2023-03-29T12:02:11.682Z,7.22
2023-03-29T12:04:49.773Z,7.13
2023-03-29T12:07:21.084Z,7.18
2023-03-29T12:09:52.991Z,6.90
2023-03-29T12:12:25.944Z,7.63
2023-03-29T12:15:04.859Z,8.52
2023-03-29T12:17:38.515Z,9.32
2023-03-29T12:20:19.402Z,7.38
2023-03-29T12:22:50.921Z,9.65
2023-03-29T12:25:25.193Z,7.30
2023-03-29T12:28:08.860Z,7.55
2023-03-29T12:30:55.148Z,7.40
2023-03-29T12:33:56.824Z,8.05
2023-03-29T12:36:49.893Z,8.73
2023-03-29T12:39:20.594Z,7.68
2023-03-29T12:41:52.024Z,7.22
2023-03-29T12:44:24.717Z,7.63
2023-03-29T12:46:57.733Z,8.82
2023-03-29T12:49:31.632Z,8.77
2023-03-29T12:52:05.663Z,8.43
2023-03-29T12:54:34.855Z,9.35
2023-03-29T12:57:22.533Z,8.35
2023-03-29T12:59:52.680Z,8.18
2023-03-29T13:02:34.819Z,8.48
2023-03-29T13:05:05.308Z,9.18
2023-03-29T13:07:47.466Z,8.43
2023-03-29T13:10:38.872Z,8.68
2023-03-29T13:13:18.062Z,9.05
2023-03-29T13:15:48.127Z,9.43
2023-03-29T13:18:37.079Z,8.50
2023-03-29T13:21:17.102Z,9.52
2023-03-29T13:23:58.244Z,9.43
2023-03-29T13:26:52.977Z,9.65
2023-03-29T13:29:38.133Z,9.10
2023-03-29T13:32:23.708Z,8.95
2023-03-29T13:34:58.840Z,9.32
2023-03-29T13:37:38.596Z,8.40
2023-03-29T13:40:43.343Z,8.10
2023-03-29T13:43:21.670Z,8.18
2023-03-29T13:46:23.522Z,8.82
2023-03-29T13:48:59.175Z,7.88
2023-03-29T13:51:38.981Z,7.90
2023-03-29T13:54:27.937Z,8.00
2023-03-29T13:57:07.746Z,8.80
2023-03-29T13:59:44.250Z,8.35
2023-03-29T14:02:21.147Z,9.10
2023-03-29T14:04:52.488Z,9.35
2023-03-29T14:07:27.100Z,9.07
2023-03-29T14:09:58.221Z,8.93
2023-03-29T14:12:33.237Z,8.48
2023-03-29T14:15:04.980Z,9.38
2023-03-29T14:17:35.556Z,9.13
2023-03-29T14:20:09.145Z,9.13
2023-03-29T14:22:38.740Z,9.52
2023-03-29T14:25:15.720Z,8.70
2023-03-29T14:27:46.173Z,8.88
2023-03-29T14:30:23.274Z,9.35
2023-03-29T14:32:55.304Z,8.90
2023-03-29T14:35:30.716Z,8.05
2023-03-29T14:38:00.353Z,9.20
2023-03-29T14:40:28.823Z,8.90
2023-03-29T14:42:59.311Z,9.15
2023-03-29T14:45:27.899Z,7.88
2023-03-29T14:47:56.539Z,8.18
2023-03-29T14:50:28.417Z,8.45
2023-03-29T14:52:59.331Z,8.30
2023-03-29T14:55:28.025Z,7.55
2023-03-29T14:57:58.350Z,9.10
2023-03-29T15:00:31.468Z,8.80
2023-03-29T15:03:02.485Z,8.23
2023-03-29T15:05:39.894Z,8.77
2023-03-29T15:08:12.048Z,8.18
2023-03-29T15:10:43.700Z,8.45
2023-03-29T15:13:27.660Z,8.15
2023-03-29T15:15:59.487Z,7.90
2023-03-29T15:18:32.605Z,7.30
2023-03-29T15:21:04.162Z,7.20
2023-03-29T15:23:38.066Z,7.50
2023-03-29T15:26:14.399Z,7.18
2023-03-29T15:28:55.656Z,8.05
2023-03-29T15:31:28.556Z,7.95
2023-03-29T15:34:06.308Z,7.80
2023-03-29T15:36:42.579Z,7.05
2023-03-29T15:39:14.300Z,6.90
2023-03-29T15:41:42.794Z,8.30
2023-03-29T15:44:13.692Z,8.63
2023-03-29T15:46:42.086Z,7.75
2023-03-29T15:49:12.764Z,7.55
2023-03-29T15:51:41.912Z,7.07
2023-03-29T15:54:10.601Z,8.13
2023-03-29T15:56:46.409Z,7.38
2023-03-29T15:59:18.244Z,7.32
2023-03-29T16:01:47.058Z,7.82
2023-03-29T16:04:17.502Z,7.60
2023-03-29T16:06:48.976Z,7.47
2023-03-29T16:09:18.060Z,7.35
2023-03-29T16:11:50.481Z,7.85
2023-03-29T16:14:24.363Z,7.43
2023-03-29T16:16:53.657Z,7.38
2023-03-29T16:19:22.021Z,8.18
2023-03-29T16:21:50.966Z,7.97
2023-03-29T16:24:21.293Z,7.40
2023-03-29T16:26:50.971Z,7.60
2023-03-29T16:29:25.379Z,8.00
2023-03-29T16:31:54.084Z,7.80
2023-03-29T16:34:23.039Z,8.45
2023-03-29T16:36:53.089Z,7.72
2023-03-29T16:39:21.727Z,8.80
2023-03-29T16:41:53.357Z,8.38
2023-03-29T16:44:25.823Z,8.38
2023-03-29T16:46:58.497Z,8.20
2023-03-29T16:49:32.712Z,7.60
2023-03-29T16:52:03.892Z,8.10
2023-03-29T16:54:38.528Z,8.52
2023-03-29T16:57:07.797Z,7.88
2023-03-29T16:59:47.420Z,8.20
2023-03-29T17:02:15.990Z,8.10
2023-03-29T17:04:44.576Z,7.50
2023-03-29T17:07:13.137Z,7.65
2023-03-29T17:09:47.384Z,8.40
2023-03-29T17:12:15.880Z,7.53
2023-03-29T17:14:45.609Z,20.10
2023-03-29T17:17:14.105Z,8.50
2023-03-29T17:19:42.669Z,9.20
2023-03-29T17:22:19.870Z,7.95
2023-03-29T17:24:48.255Z,9.35
2023-03-29T17:27:19.415Z,10.00
2023-03-29T17:29:51.898Z,11.13
2023-03-29T17:32:23.639Z,8.63
2023-03-29T17:34:53.143Z,7.35
2023-03-29T17:37:24.392Z,8.13
2023-03-29T17:39:55.706Z,8.07
2023-03-29T17:42:26.869Z,8.00
2023-03-29T17:44:59.677Z,8.27
2023-03-29T17:47:28.082Z,8.00
2023-03-29T17:49:56.718Z,8.00
2023-03-29T17:52:25.071Z,7.95
2023-03-29T17:54:53.314Z,8.02
2023-03-29T17:57:21.718Z,7.75
2023-03-29T17:59:56.113Z,13.60
2023-03-29T18:02:26.212Z,24.52
2023-03-29T18:04:54.679Z,19.50
2023-03-29T18:07:23.034Z,12.98
2023-03-29T18:10:00.853Z,9.95
2023-03-29T18:12:29.994Z,8.45
2023-03-29T18:15:01.074Z,8.93
2023-03-29T18:17:36.776Z,9.02
2023-03-29T18:20:11.085Z,6.93
2023-03-29T18:22:39.715Z,14.85
2023-03-29T18:25:09.621Z,12.80
2023-03-29T18:27:38.183Z,10.60
2023-03-29T18:30:11.574Z,6.45
2023-03-29T18:32:41.302Z,6.95
2023-03-29T18:35:10.591Z,6.20
2023-03-29T18:37:38.895Z,7.47
2023-03-29T18:40:10.935Z,8.00
2023-03-29T18:42:44.986Z,7.07
2023-03-29T18:45:16.440Z,7.43
2023-03-29T18:47:46.891Z,7.53
2023-03-29T18:50:15.166Z,6.03
2023-03-29T18:52:46.451Z,7.30
2023-03-29T18:55:15.191Z,6.90
2023-03-29T18:57:49.429Z,7.28
2023-03-29T19:00:21.467Z,6.75
2023-03-29T19:02:51.210Z,7.00
2023-03-29T19:05:19.848Z,6.93
2023-03-29T19:07:48.097Z,7.60
2023-03-29T19:10:16.344Z,6.53
2023-03-29T19:12:44.694Z,6.50
2023-03-29T19:15:22.408Z,6.30
2023-03-29T19:18:00.917Z,6.82
2023-03-29T19:20:29.979Z,7.35
2023-03-29T19:23:02.340Z,6.65
2023-03-29T19:25:32.110Z,6.22
2023-03-29T19:28:03.472Z,6.10
2023-03-29T19:30:31.915Z,6.90
2023-03-29T19:33:02.309Z,6.45
2023-03-29T19:35:33.854Z,5.65
2023-03-29T19:38:02.308Z,5.68
2023-03-29T19:40:30.569Z,7.60
2023-03-29T19:42:58.848Z,6.15
2023-03-29T19:45:27.977Z,6.20
2023-03-29T19:47:56.340Z,6.55
2023-03-29T19:50:29.699Z,6.03
2023-03-29T19:52:58.543Z,5.95
2023-03-29T19:55:27.410Z,5.82
2023-03-29T19:57:58.596Z,6.05
2023-03-29T20:00:36.325Z,6.22
2023-03-29T20:03:07.670Z,6.75
2023-03-29T20:05:37.921Z,5.78
2023-03-29T20:08:06.773Z,6.57
2023-03-29T20:10:35.699Z,6.00
2023-03-29T20:13:06.596Z,6.32
2023-03-29T20:15:36.372Z,6.35
2023-03-29T20:18:04.961Z,5.80
2023-03-29T20:20:38.954Z,5.80
2023-03-29T20:23:09.569Z,5.88
2023-03-29T20:25:38.435Z,5.90
2023-03-29T20:28:06.698Z,8.05
2023-03-29T20:30:35.181Z,8.07
2023-03-29T20:33:04.867Z,6.60
2023-03-29T20:35:33.226Z,6.45
2023-03-29T20:38:01.616Z,6.22
2023-03-29T20:40:31.649Z,5.93
2023-03-29T20:42:59.930Z,5.85
2023-03-29T20:45:31.640Z,5.57
2023-03-29T20:48:03.731Z,5.72
2023-03-29T20:50:32.185Z,6.10
2023-03-29T20:53:03.677Z,6.30
2023-03-29T20:55:35.296Z,6.10
2023-03-29T20:58:04.020Z,6.35
2023-03-29T21:00:33.987Z,5.70
2023-03-29T21:03:03.798Z,6.28
2023-03-29T21:05:33.574Z,6.03
2023-03-29T21:08:02.930Z,5.75
2023-03-29T21:10:32.856Z,6.75
2023-03-29T21:13:02.649Z,7.00
2023-03-29T21:15:32.208Z,7.22
2023-03-29T21:18:03.427Z,9.13
2023-03-29T21:20:32.309Z,6.60
2023-03-29T21:23:02.321Z,7.03
2023-03-29T21:25:32.108Z,7.30
2023-03-29T21:28:00.541Z,6.93
2023-03-29T21:30:31.415Z,6.78
2023-03-29T21:33:01.066Z,6.47
2023-03-29T21:35:29.521Z,6.25
2023-03-29T21:37:57.783Z,6.85
2023-03-29T21:40:26.287Z,6.30
2023-03-29T21:42:56.007Z,6.25
2023-03-29T21:45:24.453Z,6.45
2023-03-29T21:47:52.882Z,6.47
2023-03-29T21:50:21.370Z,6.63
2023-03-29T21:52:50.045Z,6.20
2023-03-29T21:55:18.722Z,6.22
2023-03-29T21:57:47.099Z,6.18
2023-03-29T22:00:18.066Z,6.25
2023-03-29T22:02:46.780Z,6.47
2023-03-29T22:05:16.337Z,7.15
2023-03-29T22:07:44.808Z,7.15
2023-03-29T22:10:14.182Z,7.38
2023-03-29T22:12:43.520Z,7.10
2023-03-29T22:15:12.867Z,7.38
2023-03-29T22:17:43.154Z,6.18
2023-03-29T22:20:14.409Z,7.07
2023-03-29T22:22:46.612Z,6.30
2023-03-29T22:25:14.891Z,6.60
2023-03-29T22:27:44.911Z,6.07
2023-03-29T22:30:14.127Z,6.30
2023-03-29T22:32:44.162Z,6.03
2023-03-29T22:35:12.591Z,6.50
2023-03-29T22:37:45.080Z,7.28
2023-03-29T22:40:16.581Z,6.90
2023-03-29T22:42:44.895Z,6.80
2023-03-29T22:45:13.283Z,6.93
2023-03-29T22:47:41.611Z,5.85
2023-03-29T22:50:12.200Z,6.40
2023-03-29T22:52:40.447Z,6.45
2023-03-29T22:55:09.377Z,6.07
2023-03-29T22:57:37.659Z,6.88
2023-03-29T23:00:09.760Z,6.57
2023-03-29T23:02:38.389Z,6.63
2023-03-29T23:05:07.378Z,6.80
2023-03-29T23:07:37.291Z,7.00
2023-03-29T23:10:07.571Z,6.70
2023-03-29T23:12:36.703Z,5.90
2023-03-29T23:15:06.362Z,6.30
2023-03-29T23:17:34.977Z,6.32
2023-03-29T23:20:06.194Z,6.35
2023-03-29T23:22:36.326Z,6.43
2023-03-29T23:25:06.586Z,6.07
2023-03-29T23:27:35.077Z,7.70
2023-03-29T23:30:03.401Z,6.72
2023-03-29T23:32:31.700Z,6.95
2023-03-29T23:35:02.228Z,6.40
2023-03-29T23:37:30.472Z,6.28
2023-03-29T23:39:58.908Z,6.80
2023-03-29T23:42:30.901Z,6.45
2023-03-29T23:45:02.093Z,6.50
2023-03-29T23:47:31.265Z,6.65
2023-03-29T23:50:02.241Z,7.07
2023-03-29T23:52:32.636Z,6.53
2023-03-29T23:55:01.512Z,6.25
2023-03-29T23:57:34.210Z,7.30
